sensor_id;sensor_type;location;lat;lon;timestamp;P1;durP1;ratioP1;P2;durP2;ratioP2
74799;SDS011;63326;45.088;7.658;2024-02-16T00:00:32;17.25;;;9.35;;
74799;SDS011;63326;45.088;7.658;2024-02-16T00:03:00;15.18;;;9.80;;
74799;SDS011;63326;45.088;7.658;2024-02-16T00:05:27;15.70;;;9.35;;
74799;SDS011;63326;45.088;7.658;2024-02-16T00:07:55;16.13;;;11.63;;
74799;SDS011;63326;45.088;7.658;2024-02-16T00:10:23;21.20;;;10.32;;
74799;SDS011;63326;45.088;7.658;2024-02-16T00:12:52;19.23;;;10.60;;
74799;SDS011;63326;45.088;7.658;2024-02-16T00:15:21;13.85;;;9.15;;
74799;SDS011;63326;45.088;7.658;2024-02-16T00:17:48;15.55;;;10.18;;
74799;SDS011;63326;45.088;7.658;2024-02-16T00:20:16;20.10;;;10.52;;
74799;SDS011;63326;45.088;7.658;2024-02-16T00:22:43;16.00;;;9.32;;
74799;SDS011;63326;45.088;7.658;2024-02-16T00:25:13;15.70;;;9.27;;
74799;SDS011;63326;45.088;7.658;2024-02-16T00:27:40;19.35;;;10.82;;
74799;SDS011;63326;45.088;7.658;2024-02-16T00:30:09;14.10;;;9.05;;
74799;SDS011;63326;45.088;7.658;2024-02-16T00:32:42;19.10;;;10.77;;
74799;SDS011;63326;45.088;7.658;2024-02-16T00:35:11;15.10;;;8.90;;
74799;SDS011;63326;45.088;7.658;2024-02-16T00:37:39;16.52;;;9.48;;
74799;SDS011;63326;45.088;7.658;2024-02-16T00:40:06;18.50;;;10.30;;
74799;SDS011;63326;45.088;7.658;2024-02-16T00:42:35;14.75;;;9.25;;
74799;SDS011;63326;45.088;7.658;2024-02-16T00:45:02;19.35;;;10.35;;
74799;SDS011;63326;45.088;7.658;2024-02-16T00:47:33;20.90;;;9.73;;
74799;SDS011;63326;45.088;7.658;2024-02-16T00:50:02;17.77;;;11.13;;
74799;SDS011;63326;45.088;7.658;2024-02-16T00:52:31;18.60;;;10.30;;
74799;SDS011;63326;45.088;7.658;2024-02-16T00:55:00;18.45;;;8.82;;
74799;SDS011;63326;45.088;7.658;2024-02-16T00:57:40;16.23;;;9.88;;
74799;SDS011;63326;45.088;7.658;2024-02-16T01:00:08;17.00;;;10.95;;
74799;SDS011;63326;45.088;7.658;2024-02-16T01:02:35;19.35;;;11.13;;
74799;SDS011;63326;45.088;7.658;2024-02-16T01:05:02;17.33;;;10.70;;
74799;SDS011;63326;45.088;7.658;2024-02-16T01:07:30;20.10;;;10.15;;
74799;SDS011;63326;45.088;7.658;2024-02-16T01:09:58;18.83;;;11.48;;
74799;SDS011;63326;45.088;7.658;2024-02-16T01:12:26;16.85;;;9.15;;
74799;SDS011;63326;45.088;7.658;2024-02-16T01:14:53;18.30;;;10.38;;
74799;SDS011;63326;45.088;7.658;2024-02-16T01:17:20;16.00;;;9.10;;
74799;SDS011;63326;45.088;7.658;2024-02-16T01:19:51;20.50;;;10.73;;
74799;SDS011;63326;45.088;7.658;2024-02-16T01:22:18;16.35;;;10.70;;
74799;SDS011;63326;45.088;7.658;2024-02-16T01:24:46;19.08;;;9.75;;
74799;SDS011;63326;45.088;7.658;2024-02-16T01:27:13;16.35;;;9.88;;
74799;SDS011;63326;45.088;7.658;2024-02-16T01:29:40;20.48;;;11.43;;
74799;SDS011;63326;45.088;7.658;2024-02-16T01:32:08;18.33;;;9.63;;
74799;SDS011;63326;45.088;7.658;2024-02-16T01:34:36;17.05;;;9.85;;
74799;SDS011;63326;45.088;7.658;2024-02-16T01:37:06;16.25;;;9.80;;
74799;SDS011;63326;45.088;7.658;2024-02-16T01:39:33;21.15;;;10.73;;
74799;SDS011;63326;45.088;7.658;2024-02-16T01:42:01;16.95;;;10.65;;
74799;SDS011;63326;45.088;7.658;2024-02-16T01:44:28;18.95;;;10.98;;
74799;SDS011;63326;45.088;7.658;2024-02-16T01:46:55;16.50;;;11.40;;
74799;SDS011;63326;45.088;7.658;2024-02-16T01:49:22;15.63;;;9.35;;
74799;SDS011;63326;45.088;7.658;2024-02-16T01:51:50;15.50;;;9.82;;
74799;SDS011;63326;45.088;7.658;2024-02-16T01:54:17;18.45;;;9.13;;
74799;SDS011;63326;45.088;7.658;2024-02-16T01:56:44;17.92;;;11.45;;
74799;SDS011;63326;45.088;7.658;2024-02-16T01:59:13;17.25;;;9.90;;
74799;SDS011;63326;45.088;7.658;2024-02-16T02:01:40;18.30;;;9.45;;
74799;SDS011;63326;45.088;7.658;2024-02-16T02:04:07;22.92;;;10.18;;
74799;SDS011;63326;45.088;7.658;2024-02-16T02:06:34;17.83;;;10.00;;
74799;SDS011;63326;45.088;7.658;2024-02-16T02:09:02;18.10;;;11.40;;
74799;SDS011;63326;45.088;7.658;2024-02-16T02:11:29;16.25;;;10.48;;
74799;SDS011;63326;45.088;7.658;2024-02-16T02:13:56;17.45;;;10.15;;
74799;SDS011;63326;45.088;7.658;2024-02-16T02:16:23;16.35;;;9.98;;
74799;SDS011;63326;45.088;7.658;2024-02-16T02:18:55;13.98;;;9.73;;
74799;SDS011;63326;45.088;7.658;2024-02-16T02:21:25;21.42;;;11.35;;
74799;SDS011;63326;45.088;7.658;2024-02-16T02:23:51;16.00;;;9.82;;
74799;SDS011;63326;45.088;7.658;2024-02-16T02:26:20;12.82;;;10.68;;
74799;SDS011;63326;45.088;7.658;2024-02-16T02:33:41;14.13;;;8.07;;
74799;SDS011;63326;45.088;7.658;2024-02-16T02:36:08;15.57;;;8.77;;
74799;SDS011;63326;45.088;7.658;2024-02-16T02:38:35;15.35;;;9.73;;
74799;SDS011;63326;45.088;7.658;2024-02-16T02:41:02;22.23;;;11.13;;
74799;SDS011;63326;45.088;7.658;2024-02-16T02:43:33;17.83;;;10.15;;
74799;SDS011;63326;45.088;7.658;2024-02-16T02:46:00;18.05;;;10.30;;
74799;SDS011;63326;45.088;7.658;2024-02-16T02:48:27;14.38;;;9.88;;
74799;SDS011;63326;45.088;7.658;2024-02-16T02:50:54;22.45;;;10.77;;
74799;SDS011;63326;45.088;7.658;2024-02-16T02:53:24;16.90;;;10.25;;
74799;SDS011;63326;45.088;7.658;2024-02-16T02:55:53;14.70;;;9.43;;
74799;SDS011;63326;45.088;7.658;2024-02-16T02:58:21;14.40;;;9.45;;
74799;SDS011;63326;45.088;7.658;2024-02-16T03:00:48;19.88;;;9.85;;
74799;SDS011;63326;45.088;7.658;2024-02-16T03:03:19;17.73;;;9.50;;
74799;SDS011;63326;45.088;7.658;2024-02-16T03:05:49;17.35;;;10.02;;
74799;SDS011;63326;45.088;7.658;2024-02-16T03:08:17;15.55;;;8.88;;
74799;SDS011;63326;45.088;7.658;2024-02-16T03:10:44;15.93;;;10.10;;
74799;SDS011;63326;45.088;7.658;2024-02-16T03:13:11;17.73;;;11.48;;
74799;SDS011;63326;45.088;7.658;2024-02-16T03:15:41;20.70;;;11.50;;
74799;SDS011;63326;45.088;7.658;2024-02-16T03:18:08;18.52;;;10.25;;
74799;SDS011;63326;45.088;7.658;2024-02-16T03:20:36;15.40;;;9.88;;
74799;SDS011;63326;45.088;7.658;2024-02-16T03:23:02;16.23;;;10.35;;
74799;SDS011;63326;45.088;7.658;2024-02-16T03:25:32;13.95;;;9.63;;
74799;SDS011;63326;45.088;7.658;2024-02-16T03:27:58;13.27;;;9.68;;
74799;SDS011;63326;45.088;7.658;2024-02-16T03:30:27;18.75;;;10.40;;
74799;SDS011;63326;45.088;7.658;2024-02-16T03:32:55;18.92;;;10.85;;
74799;SDS011;63326;45.088;7.658;2024-02-16T03:35:25;18.38;;;10.13;;
74799;SDS011;63326;45.088;7.658;2024-02-16T03:37:56;17.75;;;10.30;;
74799;SDS011;63326;45.088;7.658;2024-02-16T03:40:23;20.27;;;10.05;;
74799;SDS011;63326;45.088;7.658;2024-02-16T03:42:51;16.08;;;10.35;;
74799;SDS011;63326;45.088;7.658;2024-02-16T03:45:18;17.33;;;11.07;;
74799;SDS011;63326;45.088;7.658;2024-02-16T03:47:45;19.85;;;10.93;;
74799;SDS011;63326;45.088;7.658;2024-02-16T03:50:15;18.40;;;9.18;;
74799;SDS011;63326;45.088;7.658;2024-02-16T03:52:43;19.02;;;10.10;;
74799;SDS011;63326;45.088;7.658;2024-02-16T03:55:10;18.95;;;9.70;;
74799;SDS011;63326;45.088;7.658;2024-02-16T03:57:39;14.23;;;8.95;;
74799;SDS011;63326;45.088;7.658;2024-02-16T04:00:06;15.25;;;10.82;;
74799;SDS011;63326;45.088;7.658;2024-02-16T04:02:40;21.20;;;9.98;;
74799;SDS011;63326;45.088;7.658;2024-02-16T04:07:37;10.00;;;6.35;;
74799;SDS011;63326;45.088;7.658;2024-02-16T04:10:03;22.55;;;9.00;;
74799;SDS011;63326;45.088;7.658;2024-02-16T04:12:32;12.50;;;6.68;;
74799;SDS011;63326;45.088;7.658;2024-02-16T04:14:59;17.52;;;9.43;;
74799;SDS011;63326;45.088;7.658;2024-02-16T04:17:26;22.38;;;9.45;;
74799;SDS011;63326;45.088;7.658;2024-02-16T04:19:54;16.27;;;9.88;;
74799;SDS011;63326;45.088;7.658;2024-02-16T04:22:21;13.48;;;8.40;;
74799;SDS011;63326;45.088;7.658;2024-02-16T04:24:48;13.65;;;7.80;;
74799;SDS011;63326;45.088;7.658;2024-02-16T04:27:15;14.10;;;8.93;;
74799;SDS011;63326;45.088;7.658;2024-02-16T04:29:42;12.18;;;7.88;;
74799;SDS011;63326;45.088;7.658;2024-02-16T04:32:09;20.02;;;9.68;;
74799;SDS011;63326;45.088;7.658;2024-02-16T04:34:36;15.52;;;9.45;;
74799;SDS011;63326;45.088;7.658;2024-02-16T04:37:03;17.17;;;9.85;;
74799;SDS011;63326;45.088;7.658;2024-02-16T04:39:30;20.70;;;10.75;;
74799;SDS011;63326;45.088;7.658;2024-02-16T04:41:58;17.90;;;10.13;;
74799;SDS011;63326;45.088;7.658;2024-02-16T04:44:26;11.40;;;7.57;;
74799;SDS011;63326;45.088;7.658;2024-02-16T04:46:56;15.55;;;9.38;;
74799;SDS011;63326;45.088;7.658;2024-02-16T04:49:24;19.30;;;11.88;;
74799;SDS011;63326;45.088;7.658;2024-02-16T04:51:51;12.48;;;9.35;;
74799;SDS011;63326;45.088;7.658;2024-02-16T04:54:17;16.67;;;9.32;;
74799;SDS011;63326;45.088;7.658;2024-02-16T04:56:44;11.98;;;8.88;;
74799;SDS011;63326;45.088;7.658;2024-02-16T04:59:11;19.70;;;11.23;;
74799;SDS011;63326;45.088;7.658;2024-02-16T05:01:40;19.85;;;10.45;;
74799;SDS011;63326;45.088;7.658;2024-02-16T05:04:06;21.90;;;10.00;;
74799;SDS011;63326;45.088;7.658;2024-02-16T05:06:39;18.05;;;9.30;;
74799;SDS011;63326;45.088;7.658;2024-02-16T05:09:07;11.80;;;7.60;;
74799;SDS011;63326;45.088;7.658;2024-02-16T05:11:34;14.35;;;10.63;;
74799;SDS011;63326;45.088;7.658;2024-02-16T05:14:01;13.10;;;8.30;;
74799;SDS011;63326;45.088;7.658;2024-02-16T05:16:30;18.40;;;10.43;;
74799;SDS011;63326;45.088;7.658;2024-02-16T05:18:59;15.82;;;9.50;;
74799;SDS011;63326;45.088;7.658;2024-02-16T05:21:26;14.75;;;8.55;;
74799;SDS011;63326;45.088;7.658;2024-02-16T05:23:53;15.13;;;9.38;;
74799;SDS011;63326;45.088;7.658;2024-02-16T05:26:21;18.15;;;8.98;;
74799;SDS011;63326;45.088;7.658;2024-02-16T05:28:48;17.55;;;9.07;;
74799;SDS011;63326;45.088;7.658;2024-02-16T05:31:16;15.77;;;9.60;;
74799;SDS011;63326;45.088;7.658;2024-02-16T05:33:47;17.30;;;9.77;;
74799;SDS011;63326;45.088;7.658;2024-02-16T05:36:17;20.45;;;8.93;;
74799;SDS011;63326;45.088;7.658;2024-02-16T05:38:47;16.60;;;8.10;;
74799;SDS011;63326;45.088;7.658;2024-02-16T05:41:15;10.45;;;7.90;;
74799;SDS011;63326;45.088;7.658;2024-02-16T05:43:46;15.23;;;8.63;;
74799;SDS011;63326;45.088;7.658;2024-02-16T05:46:15;16.85;;;9.88;;
74799;SDS011;63326;45.088;7.658;2024-02-16T05:48:46;18.98;;;9.82;;
74799;SDS011;63326;45.088;7.658;2024-02-16T05:51:13;17.00;;;8.35;;
74799;SDS011;63326;45.088;7.658;2024-02-16T05:53:41;18.30;;;10.55;;
74799;SDS011;63326;45.088;7.658;2024-02-16T05:56:09;14.93;;;10.43;;
74799;SDS011;63326;45.088;7.658;2024-02-16T05:58:37;14.80;;;8.50;;
74799;SDS011;63326;45.088;7.658;2024-02-16T06:01:04;14.85;;;8.65;;
74799;SDS011;63326;45.088;7.658;2024-02-16T06:03:31;15.60;;;9.27;;
74799;SDS011;63326;45.088;7.658;2024-02-16T06:06:00;15.48;;;9.13;;
74799;SDS011;63326;45.088;7.658;2024-02-16T06:08:30;14.57;;;9.43;;
74799;SDS011;63326;45.088;7.658;2024-02-16T06:10:56;11.98;;;8.68;;
74799;SDS011;63326;45.088;7.658;2024-02-16T06:13:23;17.23;;;10.88;;
74799;SDS011;63326;45.088;7.658;2024-02-16T06:15:52;14.75;;;10.75;;
74799;SDS011;63326;45.088;7.658;2024-02-16T06:18:20;19.02;;;9.10;;
74799;SDS011;63326;45.088;7.658;2024-02-16T06:20:48;10.98;;;7.95;;
74799;SDS011;63326;45.088;7.658;2024-02-16T06:25:45;8.77;;;6.75;;
74799;SDS011;63326;45.088;7.658;2024-02-16T06:28:16;20.95;;;9.57;;
74799;SDS011;63326;45.088;7.658;2024-02-16T06:30:44;13.27;;;8.85;;
74799;SDS011;63326;45.088;7.658;2024-02-16T06:33:13;14.05;;;8.30;;
74799;SDS011;63326;45.088;7.658;2024-02-16T06:35:42;15.05;;;9.73;;
74799;SDS011;63326;45.088;7.658;2024-02-16T06:38:13;15.25;;;8.30;;
74799;SDS011;63326;45.088;7.658;2024-02-16T06:40:40;15.32;;;8.93;;
74799;SDS011;63326;45.088;7.658;2024-02-16T06:43:06;15.02;;;8.98;;
74799;SDS011;63326;45.088;7.658;2024-02-16T06:45:37;16.02;;;9.07;;
74799;SDS011;63326;45.088;7.658;2024-02-16T06:48:04;13.32;;;7.88;;
74799;SDS011;63326;45.088;7.658;2024-02-16T06:50:33;13.10;;;6.63;;
74799;SDS011;63326;45.088;7.658;2024-02-16T06:53:05;11.10;;;7.00;;
74799;SDS011;63326;45.088;7.658;2024-02-16T06:55:33;10.18;;;6.85;;
74799;SDS011;63326;45.088;7.658;2024-02-16T06:58:01;14.65;;;9.18;;
74799;SDS011;63326;45.088;7.658;2024-02-16T07:00:31;13.48;;;8.20;;
74799;SDS011;63326;45.088;7.658;2024-02-16T07:02:58;21.30;;;10.90;;
74799;SDS011;63326;45.088;7.658;2024-02-16T07:05:25;16.67;;;12.15;;
74799;SDS011;63326;45.088;7.658;2024-02-16T07:07:54;17.30;;;11.18;;
74799;SDS011;63326;45.088;7.658;2024-02-16T07:10:21;16.52;;;11.05;;
74799;SDS011;63326;45.088;7.658;2024-02-16T07:12:49;16.80;;;9.63;;
74799;SDS011;63326;45.088;7.658;2024-02-16T07:15:16;15.45;;;9.80;;
74799;SDS011;63326;45.088;7.658;2024-02-16T07:17:44;11.00;;;9.10;;
74799;SDS011;63326;45.088;7.658;2024-02-16T07:20:11;17.52;;;10.18;;
74799;SDS011;63326;45.088;7.658;2024-02-16T07:22:42;16.17;;;9.95;;
74799;SDS011;63326;45.088;7.658;2024-02-16T07:25:12;16.00;;;10.32;;
74799;SDS011;63326;45.088;7.658;2024-02-16T07:27:39;15.07;;;10.25;;
74799;SDS011;63326;45.088;7.658;2024-02-16T07:30:09;20.30;;;9.48;;
74799;SDS011;63326;45.088;7.658;2024-02-16T07:32:52;15.73;;;10.07;;
74799;SDS011;63326;45.088;7.658;2024-02-16T07:35:19;17.85;;;10.30;;
74799;SDS011;63326;45.088;7.658;2024-02-16T07:37:51;21.83;;;10.95;;
74799;SDS011;63326;45.088;7.658;2024-02-16T07:40:20;14.15;;;10.73;;
74799;SDS011;63326;45.088;7.658;2024-02-16T07:42:48;18.40;;;11.88;;
74799;SDS011;63326;45.088;7.658;2024-02-16T07:45:16;17.92;;;12.13;;
74799;SDS011;63326;45.088;7.658;2024-02-16T07:47:43;25.83;;;12.38;;
74799;SDS011;63326;45.088;7.658;2024-02-16T07:50:12;22.60;;;10.90;;
74799;SDS011;63326;45.088;7.658;2024-02-16T07:52:40;22.10;;;12.90;;
74799;SDS011;63326;45.088;7.658;2024-02-16T07:55:07;16.65;;;11.15;;
74799;SDS011;63326;45.088;7.658;2024-02-16T07:57:34;23.48;;;12.38;;
74799;SDS011;63326;45.088;7.658;2024-02-16T08:00:01;17.52;;;12.38;;
74799;SDS011;63326;45.088;7.658;2024-02-16T08:02:32;20.88;;;12.95;;
74799;SDS011;63326;45.088;7.658;2024-02-16T08:05:01;24.73;;;12.93;;
74799;SDS011;63326;45.088;7.658;2024-02-16T08:07:32;27.90;;;16.67;;
74799;SDS011;63326;45.088;7.658;2024-02-16T08:10:00;22.48;;;13.52;;
74799;SDS011;63326;45.088;7.658;2024-02-16T08:12:27;28.70;;;14.73;;
74799;SDS011;63326;45.088;7.658;2024-02-16T08:14:54;29.63;;;14.57;;
74799;SDS011;63326;45.088;7.658;2024-02-16T08:17:26;27.67;;;14.55;;
74799;SDS011;63326;45.088;7.658;2024-02-16T08:19:53;21.55;;;14.07;;
74799;SDS011;63326;45.088;7.658;2024-02-16T08:22:21;23.77;;;15.90;;
74799;SDS011;63326;45.088;7.658;2024-02-16T08:24:50;27.95;;;16.70;;
74799;SDS011;63326;45.088;7.658;2024-02-16T08:27:18;25.38;;;15.75;;
74799;SDS011;63326;45.088;7.658;2024-02-16T08:29:45;22.17;;;15.18;;
74799;SDS011;63326;45.088;7.658;2024-02-16T08:32:12;30.17;;;15.48;;
74799;SDS011;63326;45.088;7.658;2024-02-16T08:34:40;24.60;;;14.85;;
74799;SDS011;63326;45.088;7.658;2024-02-16T08:37:07;22.48;;;16.20;;
74799;SDS011;63326;45.088;7.658;2024-02-16T08:39:37;24.45;;;15.43;;
74799;SDS011;63326;45.088;7.658;2024-02-16T08:42:05;23.55;;;14.18;;
74799;SDS011;63326;45.088;7.658;2024-02-16T08:44:32;30.60;;;15.38;;
74799;SDS011;63326;45.088;7.658;2024-02-16T08:46:59;26.00;;;15.70;;
74799;SDS011;63326;45.088;7.658;2024-02-16T08:49:26;29.40;;;15.38;;
74799;SDS011;63326;45.088;7.658;2024-02-16T08:51:53;25.38;;;18.00;;
74799;SDS011;63326;45.088;7.658;2024-02-16T08:54:20;25.88;;;16.00;;
74799;SDS011;63326;45.088;7.658;2024-02-16T08:56:53;29.00;;;16.27;;
74799;SDS011;63326;45.088;7.658;2024-02-16T08:59:21;26.42;;;16.88;;
74799;SDS011;63326;45.088;7.658;2024-02-16T09:01:48;26.75;;;16.48;;
74799;SDS011;63326;45.088;7.658;2024-02-16T09:04:14;29.60;;;17.83;;
74799;SDS011;63326;45.088;7.658;2024-02-16T09:06:43;25.00;;;15.27;;
74799;SDS011;63326;45.088;7.658;2024-02-16T09:09:10;32.60;;;16.95;;
74799;SDS011;63326;45.088;7.658;2024-02-16T09:11:37;26.83;;;16.20;;
74799;SDS011;63326;45.088;7.658;2024-02-16T09:14:05;28.15;;;16.60;;
74799;SDS011;63326;45.088;7.658;2024-02-16T09:16:31;27.58;;;16.40;;
74799;SDS011;63326;45.088;7.658;2024-02-16T09:18:58;28.35;;;17.73;;
74799;SDS011;63326;45.088;7.658;2024-02-16T09:21:28;23.45;;;16.15;;
74799;SDS011;63326;45.088;7.658;2024-02-16T09:23:58;25.98;;;16.05;;
74799;SDS011;63326;45.088;7.658;2024-02-16T09:26:29;24.90;;;17.15;;
74799;SDS011;63326;45.088;7.658;2024-02-16T09:29:00;26.42;;;15.10;;
74799;SDS011;63326;45.088;7.658;2024-02-16T09:31:27;30.85;;;19.60;;
74799;SDS011;63326;45.088;7.658;2024-02-16T09:33:54;24.00;;;15.73;;
74799;SDS011;63326;45.088;7.658;2024-02-16T09:36:21;26.55;;;17.70;;
74799;SDS011;63326;45.088;7.658;2024-02-16T09:38:49;26.63;;;16.10;;
74799;SDS011;63326;45.088;7.658;2024-02-16T09:41:17;27.48;;;17.67;;
74799;SDS011;63326;45.088;7.658;2024-02-16T09:43:44;26.27;;;17.35;;
74799;SDS011;63326;45.088;7.658;2024-02-16T09:46:21;27.63;;;19.00;;
74799;SDS011;63326;45.088;7.658;2024-02-16T09:48:49;25.33;;;17.65;;
74799;SDS011;63326;45.088;7.658;2024-02-16T09:51:21;25.67;;;16.73;;
74799;SDS011;63326;45.088;7.658;2024-02-16T09:53:49;25.30;;;17.15;;
74799;SDS011;63326;45.088;7.658;2024-02-16T09:56:24;24.98;;;18.25;;
74799;SDS011;63326;45.088;7.658;2024-02-16T09:58:53;26.83;;;17.27;;
74799;SDS011;63326;45.088;7.658;2024-02-16T10:01:22;30.58;;;18.13;;
74799;SDS011;63326;45.088;7.658;2024-02-16T10:03:51;26.45;;;17.40;;
74799;SDS011;63326;45.088;7.658;2024-02-16T10:06:18;29.08;;;19.58;;
74799;SDS011;63326;45.088;7.658;2024-02-16T10:08:55;26.83;;;18.17;;
74799;SDS011;63326;45.088;7.658;2024-02-16T10:11:27;28.92;;;17.52;;
74799;SDS011;63326;45.088;7.658;2024-02-16T10:13:59;29.65;;;16.98;;
74799;SDS011;63326;45.088;7.658;2024-02-16T10:16:32;27.92;;;15.68;;
74799;SDS011;63326;45.088;7.658;2024-02-16T10:19:06;24.63;;;15.35;;
74799;SDS011;63326;45.088;7.658;2024-02-16T10:21:34;25.88;;;16.42;;
74799;SDS011;63326;45.088;7.658;2024-02-16T10:24:08;27.15;;;18.42;;
74799;SDS011;63326;45.088;7.658;2024-02-16T10:26:36;29.85;;;18.00;;
74799;SDS011;63326;45.088;7.658;2024-02-16T10:29:09;23.08;;;15.35;;
74799;SDS011;63326;45.088;7.658;2024-02-16T10:31:42;29.60;;;16.45;;
74799;SDS011;63326;45.088;7.658;2024-02-16T10:36:38;24.23;;;14.52;;
74799;SDS011;63326;45.088;7.658;2024-02-16T10:39:08;24.83;;;13.65;;
74799;SDS011;63326;45.088;7.658;2024-02-16T10:41:41;21.75;;;15.45;;
74799;SDS011;63326;45.088;7.658;2024-02-16T10:44:09;26.25;;;16.58;;
74799;SDS011;63326;45.088;7.658;2024-02-16T10:46:37;24.92;;;13.57;;
74799;SDS011;63326;45.088;7.658;2024-02-16T10:49:04;23.75;;;13.60;;
74799;SDS011;63326;45.088;7.658;2024-02-16T10:51:37;21.70;;;14.50;;
74799;SDS011;63326;45.088;7.658;2024-02-16T10:54:08;22.70;;;13.48;;
74799;SDS011;63326;45.088;7.658;2024-02-16T10:56:39;20.05;;;13.07;;
74799;SDS011;63326;45.088;7.658;2024-02-16T10:59:09;22.38;;;14.00;;
74799;SDS011;63326;45.088;7.658;2024-02-16T11:01:41;24.48;;;13.05;;
74799;SDS011;63326;45.088;7.658;2024-02-16T11:04:13;25.35;;;14.13;;
74799;SDS011;63326;45.088;7.658;2024-02-16T11:06:54;22.30;;;13.70;;
74799;SDS011;63326;45.088;7.658;2024-02-16T11:09:34;19.27;;;14.18;;
74799;SDS011;63326;45.088;7.658;2024-02-16T11:12:03;21.98;;;13.95;;
74799;SDS011;63326;45.088;7.658;2024-02-16T11:14:35;21.67;;;13.93;;
74799;SDS011;63326;45.088;7.658;2024-02-16T11:17:13;24.45;;;14.68;;
74799;SDS011;63326;45.088;7.658;2024-02-16T11:19:46;21.55;;;12.25;;
74799;SDS011;63326;45.088;7.658;2024-02-16T11:22:17;19.85;;;12.60;;
74799;SDS011;63326;45.088;7.658;2024-02-16T11:24:46;23.33;;;13.32;;
74799;SDS011;63326;45.088;7.658;2024-02-16T11:27:15;22.52;;;11.55;;
74799;SDS011;63326;45.088;7.658;2024-02-16T11:29:47;22.25;;;12.77;;
74799;SDS011;63326;45.088;7.658;2024-02-16T11:32:15;24.25;;;13.93;;
74799;SDS011;63326;45.088;7.658;2024-02-16T11:34:42;24.40;;;15.13;;
74799;SDS011;63326;45.088;7.658;2024-02-16T11:37:10;24.23;;;14.82;;
74799;SDS011;63326;45.088;7.658;2024-02-16T11:39:39;24.15;;;15.32;;
74799;SDS011;63326;45.088;7.658;2024-02-16T11:42:12;25.13;;;13.85;;
74799;SDS011;63326;45.088;7.658;2024-02-16T11:44:50;22.23;;;14.02;;
74799;SDS011;63326;45.088;7.658;2024-02-16T11:47:22;22.75;;;14.68;;
74799;SDS011;63326;45.088;7.658;2024-02-16T11:50:08;21.35;;;13.70;;
74799;SDS011;63326;45.088;7.658;2024-02-16T11:52:41;23.38;;;15.45;;
74799;SDS011;63326;45.088;7.658;2024-02-16T11:55:09;24.38;;;17.50;;
74799;SDS011;63326;45.088;7.658;2024-02-16T11:57:41;26.95;;;13.88;;
74799;SDS011;63326;45.088;7.658;2024-02-16T12:00:09;24.73;;;16.27;;
74799;SDS011;63326;45.088;7.658;2024-02-16T12:02:42;29.75;;;19.05;;
74799;SDS011;63326;45.088;7.658;2024-02-16T12:05:13;31.30;;;20.05;;
74799;SDS011;63326;45.088;7.658;2024-02-16T12:07:41;34.70;;;21.92;;
74799;SDS011;63326;45.088;7.658;2024-02-16T12:10:18;34.35;;;21.60;;
74799;SDS011;63326;45.088;7.658;2024-02-16T12:12:48;32.15;;;21.27;;
74799;SDS011;63326;45.088;7.658;2024-02-16T12:15:15;31.73;;;18.98;;
74799;SDS011;63326;45.088;7.658;2024-02-16T12:17:44;36.20;;;19.83;;
74799;SDS011;63326;45.088;7.658;2024-02-16T12:20:14;32.70;;;22.20;;
74799;SDS011;63326;45.088;7.658;2024-02-16T12:25:14;29.50;;;21.42;;
74799;SDS011;63326;45.088;7.658;2024-02-16T12:27:41;28.85;;;20.05;;
74799;SDS011;63326;45.088;7.658;2024-02-16T12:30:08;30.75;;;21.67;;
74799;SDS011;63326;45.088;7.658;2024-02-16T12:32:36;34.47;;;20.02;;
74799;SDS011;63326;45.088;7.658;2024-02-16T12:35:03;33.85;;;19.90;;
74799;SDS011;63326;45.088;7.658;2024-02-16T12:37:33;33.55;;;19.65;;
74799;SDS011;63326;45.088;7.658;2024-02-16T12:40:01;33.78;;;20.35;;
74799;SDS011;63326;45.088;7.658;2024-02-16T12:42:28;33.05;;;22.30;;
74799;SDS011;63326;45.088;7.658;2024-02-16T12:44:56;28.40;;;19.00;;
74799;SDS011;63326;45.088;7.658;2024-02-16T12:47:24;31.45;;;20.90;;
74799;SDS011;63326;45.088;7.658;2024-02-16T12:49:51;33.83;;;21.75;;
74799;SDS011;63326;45.088;7.658;2024-02-16T12:52:27;35.50;;;18.58;;
74799;SDS011;63326;45.088;7.658;2024-02-16T12:54:54;32.35;;;17.52;;
74799;SDS011;63326;45.088;7.658;2024-02-16T12:57:25;35.40;;;19.27;;
74799;SDS011;63326;45.088;7.658;2024-02-16T12:59:52;29.33;;;16.80;;
74799;SDS011;63326;45.088;7.658;2024-02-16T13:02:19;37.40;;;20.63;;
74799;SDS011;63326;45.088;7.658;2024-02-16T13:04:46;30.92;;;18.80;;
74799;SDS011;63326;45.088;7.658;2024-02-16T13:07:14;30.67;;;18.83;;
74799;SDS011;63326;45.088;7.658;2024-02-16T13:09:47;37.45;;;18.27;;
74799;SDS011;63326;45.088;7.658;2024-02-16T13:12:16;28.02;;;17.27;;
74799;SDS011;63326;45.088;7.658;2024-02-16T13:14:45;34.25;;;19.83;;
74799;SDS011;63326;45.088;7.658;2024-02-16T13:17:11;30.90;;;16.92;;
74799;SDS011;63326;45.088;7.658;2024-02-16T13:19:41;28.10;;;16.55;;
74799;SDS011;63326;45.088;7.658;2024-02-16T13:22:09;26.52;;;16.60;;
74799;SDS011;63326;45.088;7.658;2024-02-16T13:24:38;28.25;;;18.50;;
74799;SDS011;63326;45.088;7.658;2024-02-16T13:27:06;37.63;;;19.00;;
74799;SDS011;63326;45.088;7.658;2024-02-16T13:29:33;32.47;;;19.35;;
74799;SDS011;63326;45.088;7.658;2024-02-16T13:32:04;32.22;;;17.20;;
74799;SDS011;63326;45.088;7.658;2024-02-16T13:34:32;32.03;;;17.55;;
74799;SDS011;63326;45.088;7.658;2024-02-16T13:37:01;36.78;;;21.55;;
74799;SDS011;63326;45.088;7.658;2024-02-16T13:39:28;35.05;;;20.08;;
74799;SDS011;63326;45.088;7.658;2024-02-16T13:41:55;29.92;;;19.13;;
74799;SDS011;63326;45.088;7.658;2024-02-16T13:44:23;31.27;;;19.67;;
74799;SDS011;63326;45.088;7.658;2024-02-16T13:46:51;30.58;;;19.92;;
74799;SDS011;63326;45.088;7.658;2024-02-16T13:49:17;25.38;;;16.27;;
74799;SDS011;63326;45.088;7.658;2024-02-16T13:51:45;30.58;;;19.63;;
74799;SDS011;63326;45.088;7.658;2024-02-16T13:54:16;36.28;;;18.95;;
74799;SDS011;63326;45.088;7.658;2024-02-16T13:56:47;31.88;;;20.20;;
74799;SDS011;63326;45.088;7.658;2024-02-16T13:59:20;30.60;;;19.02;;
74799;SDS011;63326;45.088;7.658;2024-02-16T14:01:47;34.22;;;18.73;;
74799;SDS011;63326;45.088;7.658;2024-02-16T14:06:41;31.05;;;18.45;;
74799;SDS011;63326;45.088;7.658;2024-02-16T14:09:09;31.08;;;18.00;;
74799;SDS011;63326;45.088;7.658;2024-02-16T14:11:52;36.42;;;21.02;;
74799;SDS011;63326;45.088;7.658;2024-02-16T14:14:25;32.38;;;20.42;;
74799;SDS011;63326;45.088;7.658;2024-02-16T14:17:03;34.08;;;19.85;;
74799;SDS011;63326;45.088;7.658;2024-02-16T14:19:32;34.50;;;20.38;;
74799;SDS011;63326;45.088;7.658;2024-02-16T14:22:01;32.08;;;21.17;;
74799;SDS011;63326;45.088;7.658;2024-02-16T14:24:29;31.58;;;19.92;;
74799;SDS011;63326;45.088;7.658;2024-02-16T14:26:56;32.78;;;18.45;;
74799;SDS011;63326;45.088;7.658;2024-02-16T14:29:27;31.27;;;18.25;;
74799;SDS011;63326;45.088;7.658;2024-02-16T14:31:55;34.00;;;19.70;;
74799;SDS011;63326;45.088;7.658;2024-02-16T14:34:23;30.75;;;18.90;;
74799;SDS011;63326;45.088;7.658;2024-02-16T14:36:50;29.15;;;18.38;;
74799;SDS011;63326;45.088;7.658;2024-02-16T14:39:17;33.20;;;19.52;;
74799;SDS011;63326;45.088;7.658;2024-02-16T14:41:43;34.95;;;18.23;;
74799;SDS011;63326;45.088;7.658;2024-02-16T14:44:10;32.17;;;18.75;;
74799;SDS011;63326;45.088;7.658;2024-02-16T14:46:37;35.17;;;18.00;;
74799;SDS011;63326;45.088;7.658;2024-02-16T14:49:04;32.17;;;17.35;;
74799;SDS011;63326;45.088;7.658;2024-02-16T14:51:45;35.45;;;18.20;;